Time;durP1;ratioP1;P1;durP2;ratioP2;P2;SDS_P1;SDS_P2;PMS_P1;PMS_P2;Temp;Humidity;BMP_temperature;BMP_pressure;BME280_temperature;BME280_humidity;BME280_pressure;Samples;Min_cycle;Max_cycle;Signal;HPM_P1;HPM_P2
2022/03/14 00:00:29;;;;;;;5.00;2.90;;;12.50;99.90;;;;;;5022343;28;20145;-62
2022/03/14 00:02:54;;;;;;;7.80;4.32;;;12.50;99.90;;;;;;5014039;28;20037;-63
2022/03/14 00:05:21;;;;;;;5.35;3.25;;;12.50;99.90;;;;;;5013644;28;20494;-65
2022/03/14 00:07:48;;;;;;;7.72;3.28;;;12.50;99.90;;;;;;5019619;28;20048;-65
2022/03/14 00:10:15;;;;;;;6.70;3.47;;;12.50;99.90;;;;;;5012140;28;20157;-65
2022/03/14 00:12:48;;;;;;;7.70;3.55;;;12.50;99.90;;;;;;5014720;28;20025;-65
2022/03/14 00:15:15;;;;;;;5.68;3.20;;;12.40;99.90;;;;;;5025644;28;20018;-62
2022/03/14 00:17:45;;;;;;;5.18;2.63;;;12.50;99.90;;;;;;5019314;28;20060;-66
2022/03/14 00:20:13;;;;;;;7.20;3.72;;;12.50;99.90;;;;;;5014634;28;20490;-63
2022/03/14 00:22:40;;;;;;;4.82;2.95;;;12.50;99.90;;;;;;5015646;28;20014;-62
2022/03/14 00:25:09;;;;;;;3.28;2.42;;;12.50;99.90;;;;;;5014624;28;20073;-63
2022/03/14 00:27:35;;;;;;;5.90;2.50;;;12.50;99.90;;;;;;5013077;28;20038;-63
2022/03/14 00:30:06;;;;;;;5.80;3.00;;;12.40;99.90;;;;;;5016950;28;20088;-63
2022/03/14 00:32:31;;;;;;;3.67;2.35;;;12.40;99.90;;;;;;5014656;28;20026;-62
2022/03/14 00:34:58;;;;;;;4.70;3.08;;;12.30;99.90;;;;;;5012084;28;20441;-61
2022/03/14 00:37:24;;;;;;;7.50;3.42;;;12.20;99.90;;;;;;5011135;28;20063;-66
2022/03/14 00:39:53;;;;;;;5.03;2.90;;;12.20;99.90;;;;;;5014461;28;20501;-63
2022/03/14 00:42:21;;;;;;;5.88;2.50;;;12.20;99.90;;;;;;5007731;28;20063;-64
2022/03/14 00:44:50;;;;;;;2.92;2.38;;;12.20;99.90;;;;;;5006705;28;20424;-63
2022/03/14 00:47:16;;;;;;;6.68;2.92;;;12.20;99.90;;;;;;5006191;28;20200;-64
2022/03/14 00:49:43;;;;;;;4.45;2.78;;;12.10;99.90;;;;;;5006454;28;20038;-65
2022/03/14 00:52:10;;;;;;;6.10;2.60;;;12.10;99.90;;;;;;5005360;28;20022;-63
2022/03/14 00:54:37;;;;;;;7.22;3.03;;;12.10;99.90;;;;;;5006587;28;20061;-64
2022/03/14 00:57:03;;;;;;;4.28;2.70;;;12.10;99.90;;;;;;5005652;28;20034;-65
2022/03/14 00:59:28;;;;;;;4.40;2.58;;;12.10;99.90;;;;;;5006251;28;20061;-65
2022/03/14 01:01:55;;;;;;;4.43;2.47;;;12.10;99.90;;;;;;5005676;28;20101;-63
2022/03/14 01:04:20;;;;;;;4.82;3.05;;;12.10;99.90;;;;;;5005865;28;20489;-61
2022/03/14 01:06:46;;;;;;;4.40;2.58;;;12.20;99.90;;;;;;5011515;28;20034;-66
2022/03/14 01:09:14;;;;;;;5.10;3.35;;;12.20;99.90;;;;;;5014407;28;20036;-66
2022/03/14 01:11:41;;;;;;;5.35;2.83;;;12.20;99.90;;;;;;5012399;28;20026;-62
2022/03/14 01:14:06;;;;;;;5.90;3.20;;;12.20;99.90;;;;;;5014237;28;20041;-62
2022/03/14 01:16:32;;;;;;;4.13;2.70;;;12.30;99.90;;;;;;5016041;28;20033;-65
2022/03/14 01:18:58;;;;;;;5.97;2.72;;;12.20;99.90;;;;;;5011100;28;20031;-66
2022/03/14 01:21:24;;;;;;;5.20;2.95;;;12.20;99.90;;;;;;5010523;28;20034;-66
2022/03/14 01:23:49;;;;;;;5.53;2.67;;;12.30;99.90;;;;;;5014918;28;20117;-62
2022/03/14 01:26:15;;;;;;;5.57;2.80;;;12.20;99.90;;;;;;5012373;28;20489;-63
2022/03/14 01:28:41;;;;;;;5.20;2.60;;;12.30;99.90;;;;;;5014199;28;20480;-65
2022/03/14 01:31:07;;;;;;;4.18;2.92;;;12.30;99.90;;;;;;5023316;28;20049;-65
2022/03/14 01:33:33;;;;;;;4.35;2.33;;;12.30;99.90;;;;;;5017479;28;20026;-63
2022/03/14 01:35:58;;;;;;;5.78;2.67;;;12.30;99.90;;;;;;5022562;28;20018;-65
2022/03/14 01:38:24;;;;;;;5.25;3.20;;;12.30;99.90;;;;;;5010726;28;20034;-62
2022/03/14 01:40:49;;;;;;;2.97;2.35;;;12.30;99.90;;;;;;5007251;28;20053;-63
2022/03/14 01:43:16;;;;;;;5.57;2.20;;;12.30;99.90;;;;;;5013471;28;20030;-64
2022/03/14 01:45:46;;;;;;;4.55;2.78;;;12.30;99.90;;;;;;5013443;28;20103;-67
2022/03/14 01:48:12;;;;;;;4.38;2.58;;;12.30;99.90;;;;;;5023243;28;20029;-64
2022/03/14 01:50:37;;;;;;;4.68;2.63;;;12.20;99.90;;;;;;5003610;28;20048;-63
2022/03/14 01:53:03;;;;;;;5.18;2.38;;;12.20;99.90;;;;;;5012679;28;20066;-65
2022/03/14 01:55:29;;;;;;;3.35;2.17;;;12.10;99.90;;;;;;5011181;28;20473;-63
2022/03/14 01:57:56;;;;;;;5.90;2.95;;;12.10;99.90;;;;;;5009972;28;20030;-64
2022/03/14 02:00:22;;;;;;;4.43;2.80;;;12.10;99.90;;;;;;5015114;28;20057;-62
2022/03/14 02:02:48;;;;;;;5.50;2.85;;;12.10;99.90;;;;;;5011168;28;20065;-65
2022/03/14 02:05:14;;;;;;;4.90;2.90;;;12.10;99.90;;;;;;5009671;28;20050;-65
2022/03/14 02:07:39;;;;;;;5.50;2.50;;;12.10;99.90;;;;;;5015375;28;20049;-66
2022/03/14 02:10:06;;;;;;;4.78;2.88;;;12.10;99.90;;;;;;5010940;28;20054;-64
2022/03/14 02:12:31;;;;;;;3.90;2.30;;;12.10;99.90;;;;;;5014447;28;20065;-64
2022/03/14 02:14:57;;;;;;;4.35;2.80;;;12.10;99.90;;;;;;5011645;28;20060;-63
2022/03/14 02:17:22;;;;;;;5.38;2.53;;;12.10;99.90;;;;;;5014688;28;20034;-63
2022/03/14 02:19:49;;;;;;;4.10;2.60;;;12.10;99.90;;;;;;5021781;28;20319;-65
2022/03/14 02:22:14;;;;;;;4.45;2.75;;;12.10;99.90;;;;;;5012300;28;20034;-64
2022/03/14 02:24:42;;;;;;;6.18;2.85;;;12.20;99.90;;;;;;5011699;28;20038;-64
2022/03/14 02:27:07;;;;;;;4.47;2.42;;;12.20;99.90;;;;;;5002394;28;20373;-61
2022/03/14 02:29:33;;;;;;;4.22;2.72;;;12.30;99.90;;;;;;5007620;28;20526;-63
2022/03/14 02:31:59;;;;;;;4.38;2.90;;;12.30;99.90;;;;;;5013578;28;20450;-65
2022/03/14 02:34:24;;;;;;;5.88;3.08;;;12.30;99.90;;;;;;5015207;28;20113;-62
2022/03/14 02:36:50;;;;;;;5.82;3.22;;;12.30;99.90;;;;;;5008679;28;20045;-61
2022/03/14 02:39:15;;;;;;;6.72;3.20;;;12.20;99.90;;;;;;5011731;28;20501;-65
2022/03/14 02:41:42;;;;;;;6.05;3.35;;;12.20;99.90;;;;;;5011942;28;20081;-66
2022/03/14 02:44:08;;;;;;;5.40;3.03;;;12.20;99.90;;;;;;5012499;28;20026;-66
2022/03/14 02:46:35;;;;;;;5.82;2.88;;;12.20;99.90;;;;;;5011330;28;20405;-62
2022/03/14 02:49:01;;;;;;;6.82;2.88;;;12.10;99.90;;;;;;5012003;28;20045;-64
2022/03/14 02:51:27;;;;;;;6.18;3.30;;;12.00;99.90;;;;;;5012568;28;20111;-64
2022/03/14 02:53:57;;;;;;;6.75;3.70;;;11.90;99.90;;;;;;5012884;28;20032;-62
2022/03/14 02:56:23;;;;;;;7.10;3.97;;;11.80;99.90;;;;;;5002278;28;20030;-63
2022/03/14 02:58:51;;;;;;;6.22;3.58;;;11.70;99.90;;;;;;5012518;28;20030;-66
2022/03/14 03:01:18;;;;;;;7.03;4.43;;;11.70;99.90;;;;;;5012100;28;20466;-65
2022/03/14 03:03:43;;;;;;;9.15;4.28;;;11.70;99.90;;;;;;5011867;28;20029;-64
2022/03/14 03:06:10;;;;;;;11.73;5.60;;;11.70;99.90;;;;;;5012130;28;20049;-63
2022/03/14 03:08:35;;;;;;;11.68;5.20;;;11.70;99.90;;;;;;5012109;28;20018;-64
2022/03/14 03:11:02;;;;;;;12.25;5.85;;;11.60;99.90;;;;;;5011714;28;20160;-64
2022/03/14 03:13:34;;;;;;;12.27;5.63;;;11.60;99.90;;;;;;5012618;28;20060;-62
2022/03/14 03:16:00;;;;;;;12.32;6.05;;;11.50;99.90;;;;;;5011963;28;20054;-63
2022/03/14 03:18:26;;;;;;;11.45;5.93;;;11.50;99.90;;;;;;5012634;28;20104;-61
2022/03/14 03:20:52;;;;;;;13.82;7.00;;;11.50;99.90;;;;;;5011737;28;20026;-61
2022/03/14 03:23:19;;;;;;;15.90;6.95;;;11.50;99.90;;;;;;5012245;28;20180;-61
2022/03/14 03:25:44;;;;;;;12.70;6.65;;;11.40;99.90;;;;;;5011837;28;20083;-61
2022/03/14 03:28:10;;;;;;;14.77;6.97;;;11.40;99.90;;;;;;4993178;28;20106;-63
2022/03/14 03:30:35;;;;;;;14.07;7.55;;;11.40;99.90;;;;;;5001312;28;20394;-62
2022/03/14 03:33:01;;;;;;;14.10;7.78;;;11.40;99.90;;;;;;5012409;28;20381;-65
2022/03/14 03:35:27;;;;;;;12.85;7.03;;;11.40;99.90;;;;;;5012057;28;20030;-65
2022/03/14 03:37:52;;;;;;;14.88;7.63;;;11.40;99.90;;;;;;5010844;28;20041;-61
2022/03/14 03:40:18;;;;;;;15.18;7.18;;;11.40;99.90;;;;;;5012125;28;20034;-66
2022/03/14 03:42:44;;;;;;;17.67;7.93;;;11.40;99.90;;;;;;5011699;28;20029;-64
2022/03/14 03:45:10;;;;;;;16.52;9.38;;;11.40;99.90;;;;;;5011922;28;20458;-65
2022/03/14 03:47:35;;;;;;;16.60;8.35;;;11.40;99.90;;;;;;5011722;28;20084;-65
2022/03/14 03:50:01;;;;;;;15.65;8.07;;;11.40;99.90;;;;;;5007970;28;20041;-63
2022/03/14 03:52:26;;;;;;;15.48;8.05;;;11.40;99.90;;;;;;5012229;28;20034;-64
2022/03/14 03:54:52;;;;;;;15.68;8.65;;;11.40;99.90;;;;;;5011873;28;20030;-65
2022/03/14 03:57:18;;;;;;;17.48;9.82;;;11.40;99.90;;;;;;5011951;28;20026;-62
2022/03/14 03:59:44;;;;;;;18.38;9.90;;;11.40;99.90;;;;;;5012525;28;20141;-66
2022/03/14 04:02:09;;;;;;;14.93;7.28;;;11.30;99.90;;;;;;5015184;28;20041;-64
2022/03/14 04:04:37;;;;;;;19.65;10.82;;;11.30;99.90;;;;;;5015482;28;20504;-65
2022/03/14 04:07:04;;;;;;;17.65;9.50;;;11.30;99.90;;;;;;5014874;28;20108;-67
2022/03/14 04:09:30;;;;;;;20.42;11.70;;;11.30;99.90;;;;;;5015780;28;20032;-63
2022/03/14 04:11:55;;;;;;;22.50;13.32;;;11.30;99.90;;;;;;5015240;28;20030;-62
2022/03/14 04:14:21;;;;;;;26.05;14.93;;;11.30;99.90;;;;;;5013799;28;20053;-64
2022/03/14 04:16:46;;;;;;;28.50;14.75;;;11.20;99.90;;;;;;5015355;28;20022;-62
2022/03/14 04:19:12;;;;;;;27.65;15.32;;;11.10;99.90;;;;;;5014862;28;20030;-62
2022/03/14 04:21:39;;;;;;;29.75;16.58;;;11.00;99.90;;;;;;5000261;28;20033;-65
2022/03/14 04:24:06;;;;;;;33.33;17.75;;;10.80;99.90;;;;;;5013796;28;20049;-61
2022/03/14 04:26:32;;;;;;;33.10;16.85;;;10.80;99.90;;;;;;5014799;28;20096;-64
2022/03/14 04:28:58;;;;;;;32.38;16.92;;;10.80;99.90;;;;;;5014151;28;20041;-66
2022/03/14 04:31:23;;;;;;;34.05;18.08;;;10.80;99.90;;;;;;5014350;28;20034;-63
2022/03/14 04:33:49;;;;;;;34.83;17.25;;;10.70;99.90;;;;;;5015190;28;20022;-65
2022/03/14 04:36:15;;;;;;;31.23;16.75;;;10.70;99.90;;;;;;5014171;28;20048;-65
2022/03/14 04:38:41;;;;;;;33.03;17.63;;;10.60;99.90;;;;;;5014812;28;20454;-61
2022/03/14 04:41:06;;;;;;;32.97;16.67;;;10.60;99.90;;;;;;5015127;28;20030;-62
2022/03/14 04:43:32;;;;;;;32.10;16.45;;;10.60;99.90;;;;;;5014629;28;20485;-62
2022/03/14 04:45:57;;;;;;;33.22;16.45;;;10.50;99.90;;;;;;5014483;28;20545;-66
2022/03/14 04:48:23;;;;;;;34.17;16.67;;;10.50;99.90;;;;;;5014995;28;20458;-65
2022/03/14 04:50:50;;;;;;;34.97;14.90;;;10.50;99.90;;;;;;5014421;28;20026;-63
2022/03/14 04:53:17;;;;;;;29.98;14.00;;;10.40;99.90;;;;;;5013721;28;20153;-63
2022/03/14 04:55:43;;;;;;;31.95;14.30;;;10.40;99.90;;;;;;5014676;28;20466;-62
2022/03/14 04:58:12;;;;;;;29.92;13.77;;;10.40;99.90;;;;;;5014274;28;20490;-66
2022/03/14 05:00:38;;;;;;;31.30;13.20;;;10.40;99.90;;;;;;5014204;28;20068;-64
2022/03/14 05:03:05;;;;;;;28.98;13.30;;;10.40;99.90;;;;;;5015145;28;20050;-63
2022/03/14 05:05:31;;;;;;;25.17;12.30;;;10.30;99.90;;;;;;5014284;28;20045;-63
2022/03/14 05:07:58;;;;;;;27.52;11.48;;;10.30;99.90;;;;;;5014224;28;20034;-66
2022/03/14 05:10:23;;;;;;;21.10;9.38;;;10.30;99.90;;;;;;5013830;28;20370;-65
2022/03/14 05:12:49;;;;;;;17.75;7.30;;;10.30;99.90;;;;;;5014406;28;20038;-65
2022/03/14 05:15:18;;;;;;;19.58;8.10;;;10.20;99.90;;;;;;5014129;28;20116;-63
2022/03/14 05:17:45;;;;;;;20.35;7.40;;;10.10;99.90;;;;;;5013637;28;20032;-65
2022/03/14 05:20:11;;;;;;;22.85;7.80;;;10.10;99.90;;;;;;5013523;28;20072;-63
2022/03/14 05:22:45;;;;;;;21.13;7.18;;;10.10;99.90;;;;;;5013225;28;20034;-66
2022/03/14 05:25:11;;;;;;;20.40;6.70;;;10.00;99.90;;;;;;4996091;28;20062;-67
2022/03/14 05:27:38;;;;;;;16.17;4.93;;;10.00;99.90;;;;;;5014187;28;20477;-65
2022/03/14 05:30:06;;;;;;;13.68;4.80;;;10.00;99.90;;;;;;5012702;28;20026;-66
2022/03/14 05:32:31;;;;;;;19.38;6.35;;;9.90;99.90;;;;;;5013621;28;20018;-66
2022/03/14 05:34:57;;;;;;;15.60;5.28;;;9.90;99.90;;;;;;5014341;28;20034;-66
2022/03/14 05:37:22;;;;;;;17.15;5.55;;;9.90;99.90;;;;;;5014735;28;20445;-66
2022/03/14 05:39:49;;;;;;;15.15;5.82;;;9.80;99.90;;;;;;5012675;28;20526;-63
2022/03/14 05:42:15;;;;;;;12.38;3.47;;;9.80;99.90;;;;;;5012098;28;20386;-65
2022/03/14 05:44:42;;;;;;;15.32;4.03;;;9.80;99.90;;;;;;5013266;28;20413;-64
2022/03/14 05:47:08;;;;;;;18.52;4.28;;;9.80;99.90;;;;;;5013143;28;20021;-65
2022/03/14 05:49:34;;;;;;;17.45;5.43;;;9.80;99.90;;;;;;5013079;28;20031;-64
2022/03/14 05:51:59;;;;;;;4.80;2.28;;;9.70;99.90;;;;;;5013700;28;20466;-65
2022/03/14 05:54:25;;;;;;;16.83;4.80;;;9.70;99.90;;;;;;5013591;28;20039;-67
2022/03/14 05:56:50;;;;;;;13.70;3.58;;;9.70;99.90;;;;;;5011787;28;20021;-64
2022/03/14 05:59:16;;;;;;;14.38;5.30;;;9.70;99.90;;;;;;5013550;28;20030;-65
2022/03/14 06:01:42;;;;;;;17.27;3.63;;;9.70;99.90;;;;;;5012677;28;20026;-66
2022/03/14 06:04:07;;;;;;;23.13;8.10;;;9.70;99.90;;;;;;5014076;28;20029;-66
2022/03/14 06:06:34;;;;;;;12.13;3.70;;;9.70;99.90;;;;;;5013442;28;20392;-64
2022/03/14 06:08:59;;;;;;;23.33;5.75;;;9.70;99.90;;;;;;5013357;28;20105;-65
2022/03/14 06:11:27;;;;;;;19.15;5.22;;;9.70;99.90;;;;;;5013456;28;20156;-64
2022/03/14 06:13:52;;;;;;;14.20;3.97;;;9.70;99.90;;;;;;5013814;28;20030;-65
2022/03/14 06:16:18;;;;;;;19.70;6.03;;;9.70;99.90;;;;;;5013510;28;20351;-65
2022/03/14 06:18:44;;;;;;;14.80;4.30;;;9.80;99.90;;;;;;5012533;28;20398;-64
2022/03/14 06:21:09;;;;;;;12.48;3.67;;;9.80;99.90;;;;;;5013329;28;20084;-65
2022/03/14 06:23:35;;;;;;;14.25;3.10;;;9.90;99.90;;;;;;5012090;28;20057;-64
2022/03/14 06:26:01;;;;;;;8.60;2.72;;;9.90;99.90;;;;;;5011696;28;20046;-67
2022/03/14 06:28:27;;;;;;;15.00;3.88;;;9.90;99.90;;;;;;5012836;28;20030;-64
2022/03/14 06:30:53;;;;;;;13.50;3.97;;;9.90;99.90;;;;;;5012046;28;20043;-65
2022/03/14 06:33:18;;;;;;;19.15;5.13;;;9.90;99.90;;;;;;5012689;28;20101;-64
2022/03/14 06:35:44;;;;;;;19.80;4.25;;;10.00;99.90;;;;;;5012613;28;20095;-65
2022/03/14 06:38:10;;;;;;;13.73;4.97;;;10.00;99.90;;;;;;5012078;28;20030;-63
2022/03/14 06:40:36;;;;;;;14.07;4.57;;;10.00;99.90;;;;;;5012360;28;20018;-63
2022/03/14 06:43:02;;;;;;;17.42;5.25;;;10.00;99.90;;;;;;5012311;28;20087;-62
2022/03/14 06:45:31;;;;;;;17.95;6.20;;;10.00;99.90;;;;;;5011971;28;20030;-65
2022/03/14 06:47:57;;;;;;;19.63;6.75;;;10.00;99.90;;;;;;5012613;28;20033;-66
2022/03/14 06:50:23;;;;;;;21.00;7.68;;;10.10;99.90;;;;;;5012674;28;20026;-64
2022/03/14 06:52:49;;;;;;;22.08;9.52;;;10.10;99.90;;;;;;5012728;28;20042;-65
2022/03/14 06:55:15;;;;;;;24.73;9.95;;;10.10;99.90;;;;;;5008278;28;20482;-68
2022/03/14 06:57:41;;;;;;;26.40;11.13;;;10.20;99.90;;;;;;5013461;28;20045;-64
2022/03/14 07:00:08;;;;;;;22.30;10.00;;;10.20;99.90;;;;;;5012392;28;20470;-62
2022/03/14 07:02:37;;;;;;;27.42;11.52;;;10.20;99.90;;;;;;5012985;28;20026;-62
2022/03/14 07:05:03;;;;;;;26.40;11.57;;;10.30;99.90;;;;;;5012150;28;20501;-63
2022/03/14 07:07:29;;;;;;;24.50;11.50;;;10.30;99.90;;;;;;5012502;28;20105;-64
2022/03/14 07:09:54;;;;;;;22.98;10.80;;;10.30;99.90;;;;;;5028186;28;20117;-65
2022/03/14 07:12:20;;;;;;;25.05;11.48;;;10.40;99.90;;;;;;5013048;28;20029;-65
2022/03/14 07:14:46;;;;;;;26.75;12.95;;;10.50;99.90;;;;;;5013185;28;20084;-63
2022/03/14 07:17:11;;;;;;;23.80;11.05;;;10.50;99.90;;;;;;5012349;28;20395;-65
2022/03/14 07:19:42;;;;;;;26.38;13.48;;;10.50;99.90;;;;;;5012865;28;20065;-66
2022/03/14 07:22:08;;;;;;;23.52;12.27;;;10.50;99.90;;;;;;5012972;28;20402;-64
2022/03/14 07:24:34;;;;;;;21.10;11.35;;;10.60;99.90;;;;;;5027977;28;20417;-64
2022/03/14 07:26:59;;;;;;;24.55;13.05;;;10.60;99.90;;;;;;5011537;28;20045;-67
2022/03/14 07:29:25;;;;;;;25.08;12.27;;;10.50;99.90;;;;;;5013035;28;20038;-63
2022/03/14 07:31:50;;;;;;;22.35;12.27;;;10.60;99.90;;;;;;5010348;28;20069;-63
2022/03/14 07:34:16;;;;;;;24.27;13.55;;;10.60;99.90;;;;;;5012848;28;20129;-63
2022/03/14 07:36:42;;;;;;;21.92;11.75;;;10.70;99.90;;;;;;5016441;28;20054;-63
2022/03/14 07:39:07;;;;;;;22.70;11.55;;;10.70;99.90;;;;;;5016299;28;20036;-64
2022/03/14 07:41:33;;;;;;;23.77;11.30;;;10.70;99.90;;;;;;5013002;28;20467;-66
2022/03/14 07:44:03;;;;;;;27.17;13.02;;;10.80;99.90;;;;;;5016028;28;20025;-63
2022/03/14 07:46:29;;;;;;;23.17;12.23;;;10.80;99.90;;;;;;5016420;28;20034;-67
2022/03/14 07:48:55;;;;;;;23.40;12.50;;;10.90;99.90;;;;;;5016144;28;20034;-66
2022/03/14 07:51:20;;;;;;;23.55;12.40;;;10.90;99.90;;;;;;5015845;28;20386;-64
2022/03/14 07:53:46;;;;;;;23.42;11.68;;;11.00;99.90;;;;;;5016425;28;20366;-64
2022/03/14 07:56:13;;;;;;;22.00;10.57;;;11.00;99.90;;;;;;5015954;28;20030;-65
2022/03/14 07:58:40;;;;;;;17.55;9.27;;;11.00;99.90;;;;;;5014286;28;20034;-66
2022/03/14 08:01:05;;;;;;;22.70;10.77;;;11.00;99.90;;;;;;5014993;28;20029;-66
2022/03/14 08:03:32;;;;;;;20.23;9.95;;;11.00;99.90;;;;;;5016416;28;20145;-65
2022/03/14 08:06:00;;;;;;;20.27;10.38;;;11.10;99.90;;;;;;5015495;28;20038;-65
2022/03/14 08:08:26;;;;;;;21.58;10.05;;;11.20;99.90;;;;;;5016390;28;20466;-68
2022/03/14 08:10:52;;;;;;;27.05;9.93;;;11.30;99.90;;;;;;5015986;28;20026;-66
2022/03/14 08:13:20;;;;;;;23.88;11.82;;;11.40;99.90;;;;;;5026932;28;20377;-67
2022/03/14 08:15:46;;;;;;;16.45;7.88;;;11.50;99.90;;;;;;5014836;28;20037;-63
2022/03/14 08:18:13;;;;;;;20.58;10.00;;;11.60;99.90;;;;;;5013588;28;20394;-65
2022/03/14 08:20:38;;;;;;;22.73;10.05;;;11.70;99.90;;;;;;5015589;28;20026;-65
2022/03/14 08:23:05;;;;;;;24.33;10.70;;;11.80;99.90;;;;;;5013897;28;20493;-66
2022/03/14 08:25:34;;;;;;;20.25;11.27;;;12.00;99.90;;;;;;5013935;28;20087;-64
2022/03/14 08:27:59;;;;;;;21.92;10.15;;;12.20;99.90;;;;;;5012029;28;20022;-66
2022/03/14 08:30:25;;;;;;;19.92;10.02;;;12.40;99.90;;;;;;5015038;28;20041;-64
2022/03/14 08:32:53;;;;;;;23.05;9.65;;;12.40;99.90;;;;;;5015210;28;20034;-65
2022/03/14 08:35:20;;;;;;;21.52;10.40;;;12.60;99.90;;;;;;4998682;28;20034;-64
2022/03/14 08:37:48;;;;;;;21.58;10.60;;;12.60;99.90;;;;;;5015156;28;20037;-64
2022/03/14 08:40:17;;;;;;;22.45;10.88;;;12.70;99.90;;;;;;5023127;28;20036;-64
2022/03/14 08:42:44;;;;;;;17.77;9.65;;;12.80;99.90;;;;;;5025713;28;20514;-64
2022/03/14 08:45:10;;;;;;;23.52;10.80;;;12.80;99.90;;;;;;5035045;28;20052;-66
2022/03/14 08:47:36;;;;;;;20.70;10.90;;;12.70;99.90;;;;;;5020134;28;20037;-66
2022/03/14 08:50:07;;;;;;;22.73;11.35;;;12.70;99.90;;;;;;5022435;28;20021;-64
2022/03/14 08:52:33;;;;;;;21.30;12.07;;;12.70;99.90;;;;;;5018730;28;20109;-62
2022/03/14 08:54:59;;;;;;;24.73;12.57;;;12.50;99.90;;;;;;5027666;28;20469;-62
2022/03/14 08:57:25;;;;;;;21.30;11.40;;;12.40;99.90;;;;;;5021444;28;20032;-62
2022/03/14 08:59:51;;;;;;;23.20;11.55;;;12.40;99.90;;;;;;5015058;28;20072;-62
2022/03/14 09:02:17;;;;;;;22.10;11.43;;;12.20;99.90;;;;;;5015209;28;20421;-62
2022/03/14 09:04:43;;;;;;;23.23;10.57;;;12.30;99.90;;;;;;5015286;28;20037;-62
2022/03/14 09:07:09;;;;;;;23.95;11.95;;;12.40;99.90;;;;;;5010004;28;20018;-62
2022/03/14 09:09:34;;;;;;;25.15;12.07;;;12.50;99.90;;;;;;5011697;28;20037;-63
2022/03/14 09:12:01;;;;;;;22.88;11.30;;;12.70;99.90;;;;;;5013002;28;20165;-62
2022/03/14 09:14:26;;;;;;;26.05;10.75;;;12.80;99.90;;;;;;5014651;28;20030;-62
2022/03/14 09:16:52;;;;;;;24.27;11.82;;;12.90;99.90;;;;;;5009368;28;20026;-63
2022/03/14 09:19:18;;;;;;;24.60;10.10;;;12.90;99.90;;;;;;5011468;28;20491;-62
2022/03/14 09:21:45;;;;;;;21.40;12.05;;;12.90;99.90;;;;;;5014428;28;20517;-65
2022/03/14 09:24:10;;;;;;;19.80;10.25;;;12.90;99.90;;;;;;5014642;28;20058;-65
2022/03/14 09:26:37;;;;;;;20.77;10.52;;;13.00;99.90;;;;;;5013970;28;20069;-63
2022/03/14 09:29:04;;;;;;;23.65;10.32;;;13.10;99.90;;;;;;5014827;28;20022;-63
2022/03/14 09:31:30;;;;;;;19.50;10.10;;;13.20;99.90;;;;;;5014690;28;20474;-61
2022/03/14 09:33:57;;;;;;;20.25;10.65;;;13.40;99.90;;;;;;5010195;28;20025;-62
2022/03/14 09:36:23;;;;;;;21.48;9.48;;;13.40;99.90;;;;;;5014024;28;20110;-63
2022/03/14 09:38:49;;;;;;;19.90;9.75;;;13.60;99.90;;;;;;5015146;28;20114;-62
2022/03/14 09:41:19;;;;;;;24.00;9.70;;;13.80;99.90;;;;;;5018784;28;20036;-63
2022/03/14 09:43:46;;;;;;;16.58;8.25;;;14.00;99.90;;;;;;5017909;28;20490;-62
2022/03/14 09:46:13;;;;;;;17.13;8.65;;;14.30;99.90;;;;;;5020827;28;20045;-62
2022/03/14 09:48:47;;;;;;;20.17;8.65;;;14.60;99.90;;;;;;5009333;28;20030;-63
2022/03/14 09:51:12;;;;;;;20.17;7.72;;;14.90;99.90;;;;;;5009849;28;20108;-63
2022/03/14 09:53:38;;;;;;;21.25;7.90;;;15.20;99.90;;;;;;5012974;28;20096;-63
2022/03/14 09:56:04;;;;;;;14.55;7.07;;;15.50;99.90;;;;;;5012034;28;20034;-64
2022/03/14 09:58:30;;;;;;;17.25;7.80;;;15.70;99.90;;;;;;5009976;28;20030;-61
2022/03/14 10:00:55;;;;;;;16.80;6.82;;;15.70;99.90;;;;;;5017603;28;20340;-65
2022/03/14 10:03:22;;;;;;;15.75;7.15;;;15.70;99.90;;;;;;5011005;28;20482;-65
2022/03/14 10:05:48;;;;;;;16.90;7.80;;;15.50;99.90;;;;;;5005301;28;20141;-63
2022/03/14 10:08:14;;;;;;;16.73;6.70;;;15.30;99.90;;;;;;5010702;28;20492;-65
2022/03/14 10:10:40;;;;;;;18.77;7.30;;;15.20;99.90;;;;;;5005035;28;20435;-65
2022/03/14 10:13:10;;;;;;;15.55;6.90;;;15.10;99.90;;;;;;5015735;28;20022;-65
2022/03/14 10:15:37;;;;;;;21.05;7.47;;;15.50;99.90;;;;;;5006734;28;20097;-64
2022/03/14 10:18:11;;;;;;;14.10;6.10;;;16.00;99.90;;;;;;5014557;28;20045;-65
2022/03/14 10:20:37;;;;;;;13.73;5.90;;;16.40;99.90;;;;;;5015030;28;21954;-62
2022/03/14 10:23:03;;;;;;;18.17;6.45;;;16.90;99.90;;;;;;5015296;28;20030;-63
2022/03/14 10:25:30;;;;;;;12.50;5.28;;;17.50;99.90;;;;;;5007361;28;20120;-63
2022/03/14 10:27:57;;;;;;;15.93;5.47;;;18.10;99.90;;;;;;5009656;28;20046;-66
2022/03/14 10:30:30;;;;;;;15.75;5.55;;;18.20;99.90;;;;;;5003862;28;20030;-65
2022/03/14 10:33:09;;;;;;;17.45;6.05;;;18.20;99.90;;;;;;5018626;28;20037;-64
2022/03/14 10:35:38;;;;;;;18.63;5.82;;;18.00;99.90;;;;;;5012622;28;20029;-63
2022/03/14 10:38:06;;;;;;;17.83;5.97;;;17.90;99.90;;;;;;5018539;28;20226;-61
2022/03/14 10:40:36;;;;;;;14.95;5.68;;;17.60;99.90;;;;;;5031791;28;20034;-63
2022/03/14 10:43:07;;;;;;;19.80;5.55;;;17.60;99.90;;;;;;5011286;28;20472;-63
2022/03/14 10:45:32;;;;;;;17.52;5.20;;;17.90;99.90;;;;;;5014127;28;20441;-63
2022/03/14 10:47:58;;;;;;;13.88;4.30;;;18.40;99.90;;;;;;5028486;28;20079;-63
2022/03/14 10:50:32;;;;;;;14.48;5.18;;;19.00;99.50;;;;;;5030841;28;20040;-65
2022/03/14 10:53:10;;;;;;;16.27;5.32;;;19.10;99.50;;;;;;5028001;28;20374;-65
2022/03/14 10:55:42;;;;;;;15.18;4.90;;;19.40;99.10;;;;;;5000032;28;20021;-63
2022/03/14 10:58:15;;;;;;;13.73;5.53;;;19.70;98.70;;;;;;5002465;28;20030;-63
2022/03/14 11:00:44;;;;;;;18.20;5.53;;;19.80;98.40;;;;;;5012868;28;20029;-62
2022/03/14 11:03:10;;;;;;;14.80;5.32;;;20.00;98.40;;;;;;5012568;28;20109;-62
2022/03/14 11:05:45;;;;;;;12.55;4.95;;;20.30;97.90;;;;;;5012300;28;20600;-61
2022/03/14 11:08:30;;;;;;;16.92;5.25;;;20.70;97.20;;;;;;5010808;28;20108;-62
2022/03/14 11:10:57;;;;;;;14.55;5.00;;;20.10;97.50;;;;;;5015065;28;20034;-62
2022/03/14 11:13:23;;;;;;;17.40;5.78;;;19.80;97.70;;;;;;5003683;28;20037;-62
2022/03/14 11:15:49;;;;;;;17.05;6.13;;;19.60;98.00;;;;;;5014974;28;20037;-62
2022/03/14 11:18:17;;;;;;;15.07;5.97;;;19.40;98.20;;;;;;5017096;28;20022;-62
2022/03/14 11:20:43;;;;;;;17.73;6.20;;;19.30;98.70;;;;;;5015613;28;20068;-62
2022/03/14 11:23:10;;;;;;;18.70;5.70;;;19.50;98.40;;;;;;5015924;28;20398;-62
2022/03/14 11:25:37;;;;;;;18.25;6.72;;;18.90;98.90;;;;;;5015670;28;20053;-63
2022/03/14 11:28:03;;;;;;;18.73;6.85;;;18.70;99.20;;;;;;5016758;28;20037;-62
2022/03/14 11:30:34;;;;;;;14.25;5.90;;;18.80;99.40;;;;;;5015345;28;20033;-62
2022/03/14 11:33:03;;;;;;;18.27;6.38;;;18.90;99.10;;;;;;5024788;28;20034;-62
2022/03/14 11:35:29;;;;;;;17.80;6.15;;;18.90;99.20;;;;;;5023909;28;20034;-62
2022/03/14 11:37:55;;;;;;;18.75;6.07;;;18.90;99.20;;;;;;5032262;28;20130;-62
2022/03/14 11:40:22;;;;;;;12.60;5.35;;;19.00;99.20;;;;;;5019071;28;20036;-62
2022/03/14 11:42:48;;;;;;;14.88;6.43;;;19.10;98.90;;;;;;5029316;28;20072;-62
2022/03/14 11:45:14;;;;;;;16.58;6.13;;;18.90;99.30;;;;;;5026816;28;20076;-62
2022/03/14 11:47:41;;;;;;;18.52;6.60;;;18.80;99.40;;;;;;5022284;28;20018;-62
2022/03/14 11:50:08;;;;;;;19.45;7.35;;;18.60;99.60;;;;;;5016494;28;20026;-61
2022/03/14 11:52:36;;;;;;;20.75;7.60;;;18.50;99.90;;;;;;5015605;28;20120;-62
2022/03/14 11:55:14;;;;;;;20.95;7.40;;;18.50;99.60;;;;;;5033545;28;20084;-62
2022/03/14 11:57:41;;;;;;;18.02;7.38;;;18.50;99.80;;;;;;5015089;28;20064;-62
2022/03/14 12:00:22;;;;;;;17.80;8.00;;;18.60;99.70;;;;;;5016245;28;20048;-62
2022/03/14 12:02:49;;;;;;;19.80;7.63;;;18.50;99.80;;;;;;5016230;28;20048;-62
2022/03/14 12:05:41;;;;;;;21.63;7.93;;;18.20;99.90;;;;;;5014912;28;20359;-62
2022/03/14 12:08:10;;;;;;;21.98;7.15;;;18.10;99.90;;;;;;5011764;28;20444;-62
2022/03/14 12:10:36;;;;;;;18.25;6.70;;;18.20;99.90;;;;;;5016189;28;20041;-62
2022/03/14 12:13:02;;;;;;;14.98;6.63;;;18.70;99.70;;;;;;5016044;28;20026;-62
2022/03/14 12:15:39;;;;;;;21.35;6.88;;;18.80;99.30;;;;;;5016280;28;20080;-62
2022/03/14 12:18:25;;;;;;;21.50;7.85;;;19.00;99.20;;;;;;5016303;28;20516;-62
2022/03/14 12:21:03;;;;;;;19.95;7.40;;;19.00;99.00;;;;;;5013633;28;20036;-63
2022/03/14 12:23:33;;;;;;;14.07;5.82;;;18.70;99.20;;;;;;5014844;28;20056;-63
2022/03/14 12:26:01;;;;;;;20.42;6.57;;;19.10;98.90;;;;;;5016156;28;20048;-62
2022/03/14 12:28:35;;;;;;;23.05;6.80;;;19.60;98.40;;;;;;5015592;28;20026;-62
2022/03/14 12:31:03;;;;;;;16.10;6.00;;;19.80;98.00;;;;;;5010507;28;20390;-62
2022/03/14 12:33:30;;;;;;;19.00;6.28;;;19.50;97.80;;;;;;5013212;28;20423;-63
2022/03/14 12:35:57;;;;;;;17.83;5.80;;;19.20;98.10;;;;;;5011013;28;20030;-64